createdAt,value
2023-01-17T00:00:39.065Z,92.10
2023-01-17T00:06:49.662Z,84.50
2023-01-17T00:12:52.089Z,81.38
2023-01-17T00:19:04.616Z,88.82
2023-01-17T00:25:15.432Z,84.65
2023-01-17T00:31:09.630Z,89.85
2023-01-17T00:37:01.083Z,85.75
2023-01-17T00:42:53.625Z,79.40
2023-01-17T00:49:05.070Z,88.72
2023-01-17T00:55:16.720Z,78.90
2023-01-17T01:01:27.527Z,78.25
2023-01-17T01:07:37.918Z,82.00
2023-01-17T01:13:50.602Z,76.53
2023-01-17T01:20:01.545Z,80.13
2023-01-17T01:26:12.605Z,80.10
2023-01-17T01:32:23.105Z,83.82
2023-01-17T01:38:16.871Z,79.80
2023-01-17T01:44:46.211Z,80.03
2023-01-17T01:50:40.035Z,53.05
2023-01-17T01:56:34.346Z,27.38
2023-01-17T02:02:30.402Z,25.20
2023-01-17T02:08:24.306Z,21.00
2023-01-17T02:14:19.312Z,19.25
2023-01-17T02:20:25.837Z,12.55
2023-01-17T02:26:44.778Z,12.07
2023-01-17T02:32:36.497Z,10.40
2023-01-17T02:38:37.485Z,13.73
2023-01-17T02:44:41.044Z,16.52
2023-01-17T02:50:51.982Z,13.50
2023-01-17T02:56:53.519Z,16.23
2023-01-17T03:02:53.479Z,17.30
2023-01-17T03:08:48.782Z,14.77
2023-01-17T03:14:41.313Z,13.90
2023-01-17T03:20:34.221Z,13.38
2023-01-17T03:26:27.248Z,9.75
2023-01-17T03:32:19.712Z,7.97
2023-01-17T03:38:12.112Z,9.30
2023-01-17T03:44:04.692Z,9.35
2023-01-17T03:49:57.192Z,13.57
2023-01-17T03:55:49.280Z,15.10
2023-01-17T04:01:42.224Z,24.90
2023-01-17T04:07:35.374Z,19.85
2023-01-17T04:13:28.427Z,19.83
2023-01-17T04:19:21.354Z,17.58
2023-01-17T04:25:13.959Z,18.20
2023-01-17T04:31:06.405Z,16.58
2023-01-17T04:36:59.452Z,12.65
2023-01-17T04:42:52.553Z,14.35
2023-01-17T04:48:45.383Z,9.43
2023-01-17T04:54:36.952Z,6.07
2023-01-17T05:00:44.597Z,9.30
2023-01-17T05:06:37.578Z,8.38
2023-01-17T05:12:30.062Z,8.00
2023-01-17T05:18:22.562Z,8.67
2023-01-17T05:24:15.117Z,7.40
2023-01-17T05:30:08.067Z,5.90
2023-01-17T05:36:00.635Z,6.93
2023-01-17T05:41:53.410Z,7.63
2023-01-17T05:47:47.006Z,5.75
2023-01-17T05:53:39.539Z,4.93
2023-01-17T05:59:36.848Z,4.55
2023-01-17T06:05:30.306Z,4.60
2023-01-17T06:11:23.550Z,3.70
2023-01-17T06:17:15.437Z,3.78
2023-01-17T06:23:11.259Z,1.37
2023-01-17T06:29:03.737Z,3.50
2023-01-17T06:34:56.729Z,2.83
2023-01-17T06:40:50.819Z,2.70
2023-01-17T06:46:45.260Z,4.13
2023-01-17T06:52:37.871Z,4.68
2023-01-17T06:58:31.337Z,2.72
2023-01-17T07:04:24.249Z,3.00
2023-01-17T07:10:17.360Z,3.70
2023-01-17T07:16:09.866Z,2.83
2023-01-17T07:22:02.950Z,7.90
2023-01-17T07:27:59.915Z,3.78
2023-01-17T07:33:53.767Z,5.60
2023-01-17T07:39:46.241Z,4.07
2023-01-17T07:45:51.030Z,3.95
2023-01-17T07:51:43.995Z,6.22
2023-01-17T07:57:36.903Z,3.65
2023-01-17T08:03:32.682Z,6.57
2023-01-17T08:09:24.991Z,7.05
2023-01-17T08:15:18.584Z,6.00
2023-01-17T08:21:17.037Z,9.00
2023-01-17T08:27:09.704Z,9.82
2023-01-17T08:33:01.845Z,12.07
2023-01-17T08:38:55.322Z,10.88
2023-01-17T08:44:49.761Z,10.70
2023-01-17T08:50:43.007Z,6.38
2023-01-17T08:56:35.921Z,7.10
2023-01-17T09:02:27.924Z,6.73
2023-01-17T09:08:20.197Z,11.77
2023-01-17T09:14:13.559Z,3.33
2023-01-17T09:20:06.606Z,5.73
2023-01-17T09:26:00.274Z,5.18
2023-01-17T09:31:53.177Z,3.40
2023-01-17T09:37:49.812Z,4.00
2023-01-17T09:43:49.278Z,7.35
2023-01-17T09:49:47.308Z,4.13
2023-01-17T09:56:04.128Z,3.78
2023-01-17T10:02:09.078Z,7.18
2023-01-17T10:08:16.941Z,5.68
2023-01-17T10:14:14.976Z,4.35
2023-01-17T10:20:34.410Z,2.97
2023-01-17T10:26:27.962Z,3.50
2023-01-17T10:32:24.431Z,2.83
2023-01-17T10:38:18.563Z,4.22
2023-01-17T10:44:39.899Z,2.55
2023-01-17T10:50:42.670Z,2.08
2023-01-17T10:56:38.928Z,2.38
2023-01-17T11:02:36.863Z,3.97
2023-01-17T11:08:28.849Z,2.60
2023-01-17T11:14:25.921Z,5.07
2023-01-17T11:20:51.150Z,4.78
2023-01-17T11:26:49.657Z,5.13
2023-01-17T11:33:01.276Z,4.32
2023-01-17T11:39:21.588Z,4.22
2023-01-17T11:45:26.696Z,3.00
2023-01-17T11:51:22.464Z,6.15
2023-01-17T11:57:29.032Z,2.60
2023-01-17T12:03:39.977Z,3.25
2023-01-17T12:09:39.678Z,3.47
2023-01-17T12:15:48.891Z,3.40
2023-01-17T12:21:49.536Z,4.68
2023-01-17T12:28:15.100Z,2.15
2023-01-17T12:34:32.639Z,2.38
2023-01-17T12:40:33.461Z,7.63
2023-01-17T12:46:31.599Z,6.05
2023-01-17T12:52:53.484Z,5.25
2023-01-17T12:58:51.482Z,4.15
2023-01-17T13:04:58.687Z,2.58
2023-01-17T13:10:52.263Z,2.70
2023-01-17T13:16:58.035Z,1.63
2023-01-17T13:22:51.822Z,1.73
2023-01-17T13:29:11.571Z,2.55
2023-01-17T13:35:12.922Z,4.03
2023-01-17T13:41:15.549Z,4.38
2023-01-17T13:47:27.786Z,2.78
2023-01-17T13:53:31.648Z,4.20
2023-01-17T13:59:28.436Z,3.30
2023-01-17T14:05:38.744Z,1.52
2023-01-17T14:11:49.926Z,3.67
2023-01-17T14:17:52.436Z,4.55
2023-01-17T14:23:52.785Z,5.03
2023-01-17T14:29:51.004Z,7.75
2023-01-17T14:35:58.430Z,2.10
2023-01-17T14:41:52.222Z,2.72
2023-01-17T14:47:46.235Z,5.68
2023-01-17T14:53:38.412Z,4.97
2023-01-17T14:59:30.954Z,7.68
2023-01-17T15:05:27.049Z,6.05
2023-01-17T15:11:27.767Z,6.90
2023-01-17T15:17:24.606Z,5.63
2023-01-17T15:23:22.078Z,6.72
2023-01-17T15:29:32.168Z,3.95
2023-01-17T15:35:25.588Z,4.82
2023-01-17T15:41:23.098Z,6.05
2023-01-17T15:47:38.887Z,3.90
2023-01-17T15:53:35.001Z,11.65
2023-01-17T15:59:38.971Z,4.13
2023-01-17T16:05:34.609Z,5.68
2023-01-17T16:11:27.179Z,7.65
2023-01-17T16:17:21.586Z,6.00
2023-01-17T16:23:15.309Z,7.32
2023-01-17T16:29:11.432Z,5.03
2023-01-17T16:35:07.730Z,15.60
2023-01-17T16:41:05.028Z,14.70
2023-01-17T16:47:01.569Z,14.90
2023-01-17T16:52:56.458Z,24.95
2023-01-17T16:58:51.868Z,23.45
2023-01-17T17:04:44.363Z,24.98
2023-01-17T17:10:37.390Z,30.98
2023-01-17T17:16:30.898Z,25.63
2023-01-17T17:22:23.048Z,31.30
2023-01-17T17:28:15.588Z,36.72
2023-01-17T17:34:11.789Z,40.10
2023-01-17T17:40:05.632Z,53.15
2023-01-17T17:45:58.485Z,45.03
2023-01-17T17:51:51.728Z,56.78
2023-01-17T17:57:44.256Z,48.05
2023-01-17T18:03:36.396Z,46.35
2023-01-17T18:09:28.424Z,52.85
2023-01-17T18:21:17.052Z,67.72
2023-01-17T18:27:10.752Z,63.22
2023-01-17T18:33:03.681Z,69.60
2023-01-17T18:38:57.966Z,65.40
2023-01-17T18:44:52.751Z,64.57
2023-01-17T18:50:58.089Z,79.03
2023-01-17T18:56:52.469Z,71.10
2023-01-17T19:02:49.216Z,77.38
2023-01-17T19:08:42.483Z,85.03
2023-01-17T19:14:34.646Z,105.25
2023-01-17T19:20:27.254Z,91.90
2023-01-17T19:26:24.332Z,91.60
2023-01-17T19:32:18.956Z,89.28
2023-01-17T19:38:11.847Z,114.05
2023-01-17T19:44:07.678Z,126.43
2023-01-17T19:50:00.928Z,110.95
2023-01-17T19:55:53.626Z,131.85
2023-01-17T20:01:46.125Z,153.05
2023-01-17T20:07:38.770Z,176.98
2023-01-17T20:13:31.879Z,160.02
2023-01-17T20:25:16.422Z,135.45
2023-01-17T20:31:15.113Z,110.07
2023-01-17T20:37:08.798Z,118.20
2023-01-17T20:48:55.355Z,117.55
2023-01-17T20:54:49.062Z,102.75
2023-01-17T21:00:42.497Z,106.43
2023-01-17T21:06:34.807Z,105.03
2023-01-17T21:12:26.897Z,101.55
2023-01-17T21:18:22.620Z,92.70
2023-01-17T21:24:19.599Z,89.13
2023-01-17T21:30:12.051Z,71.97
2023-01-17T21:36:08.116Z,79.15
2023-01-17T21:42:00.542Z,72.10
2023-01-17T21:47:53.322Z,74.57
2023-01-17T21:53:46.161Z,62.03
2023-01-17T21:59:38.768Z,80.10
2023-01-17T22:05:30.983Z,69.03
2023-01-17T22:11:26.287Z,50.47
2023-01-17T22:17:18.997Z,62.10
2023-01-17T22:29:05.475Z,62.00
2023-01-17T22:40:50.099Z,47.53
2023-01-17T22:46:42.739Z,56.83
2023-01-17T22:52:35.974Z,47.85
2023-01-17T22:58:28.980Z,50.58
2023-01-17T23:04:22.123Z,57.47
2023-01-17T23:10:34.529Z,55.67
2023-01-17T23:16:45.758Z,63.78
2023-01-17T23:22:38.509Z,59.83
2023-01-17T23:28:31.290Z,59.42
2023-01-17T23:34:25.484Z,67.13
2023-01-17T23:40:18.709Z,61.80
2023-01-17T23:46:12.441Z,68.05
2023-01-17T23:52:06.337Z,66.35
2023-01-17T23:58:00.258Z,70.72
